sensor_id;sensor_type;location;lat;lon;timestamp;temperature;humidity
24560;DHT22;12727;49.934;8.656;2022-07-06T00:02:08;18.20;68.00
24560;DHT22;12727;49.934;8.656;2022-07-06T00:04:33;18.10;68.30
24560;DHT22;12727;49.934;8.656;2022-07-06T00:06:59;17.90;68.60
24560;DHT22;12727;49.934;8.656;2022-07-06T00:09:25;17.90;69.40
24560;DHT22;12727;49.934;8.656;2022-07-06T00:11:50;17.80;69.30
24560;DHT22;12727;49.934;8.656;2022-07-06T00:14:16;17.80;69.70
24560;DHT22;12727;49.934;8.656;2022-07-06T00:16:41;17.80;69.60
24560;DHT22;12727;49.934;8.656;2022-07-06T00:19:07;17.70;70.30
24560;DHT22;12727;49.934;8.656;2022-07-06T00:21:32;17.70;70.40
24560;DHT22;12727;49.934;8.656;2022-07-06T00:23:58;17.70;70.40
24560;DHT22;12727;49.934;8.656;2022-07-06T00:26:24;17.60;70.80
24560;DHT22;12727;49.934;8.656;2022-07-06T00:28:49;17.60;71.10
24560;DHT22;12727;49.934;8.656;2022-07-06T00:31:15;17.60;71.50
24560;DHT22;12727;49.934;8.656;2022-07-06T00:33:40;17.50;71.80
24560;DHT22;12727;49.934;8.656;2022-07-06T00:36:06;17.60;72.10
24560;DHT22;12727;49.934;8.656;2022-07-06T00:38:32;17.40;72.00
24560;DHT22;12727;49.934;8.656;2022-07-06T00:40:57;17.40;72.60
24560;DHT22;12727;49.934;8.656;2022-07-06T00:43:23;17.30;73.10
24560;DHT22;12727;49.934;8.656;2022-07-06T00:45:48;17.30;73.30
24560;DHT22;12727;49.934;8.656;2022-07-06T00:48:14;17.20;73.30
24560;DHT22;12727;49.934;8.656;2022-07-06T00:50:40;17.00;73.60
24560;DHT22;12727;49.934;8.656;2022-07-06T00:53:06;17.00;74.40
24560;DHT22;12727;49.934;8.656;2022-07-06T00:55:34;17.00;74.80
24560;DHT22;12727;49.934;8.656;2022-07-06T00:58:04;17.00;75.10
24560;DHT22;12727;49.934;8.656;2022-07-06T01:00:30;16.90;74.90
24560;DHT22;12727;49.934;8.656;2022-07-06T01:02:56;16.70;75.60
24560;DHT22;12727;49.934;8.656;2022-07-06T01:05:22;16.70;76.60
24560;DHT22;12727;49.934;8.656;2022-07-06T01:07:49;16.80;76.60
24560;DHT22;12727;49.934;8.656;2022-07-06T01:10:17;16.70;76.70
24560;DHT22;12727;49.934;8.656;2022-07-06T01:12:44;16.60;77.20
24560;DHT22;12727;49.934;8.656;2022-07-06T01:15:15;16.70;77.00
24560;DHT22;12727;49.934;8.656;2022-07-06T01:17:42;16.60;77.10
24560;DHT22;12727;49.934;8.656;2022-07-06T01:20:13;16.70;77.20
24560;DHT22;12727;49.934;8.656;2022-07-06T01:22:39;16.70;77.10
24560;DHT22;12727;49.934;8.656;2022-07-06T01:25:06;16.60;77.10
24560;DHT22;12727;49.934;8.656;2022-07-06T01:27:34;16.30;77.50
24560;DHT22;12727;49.934;8.656;2022-07-06T01:30:02;16.00;78.60
24560;DHT22;12727;49.934;8.656;2022-07-06T01:32:28;15.90;79.30
24560;DHT22;12727;49.934;8.656;2022-07-06T01:34:53;15.80;79.90
24560;DHT22;12727;49.934;8.656;2022-07-06T01:37:19;15.70;80.60
24560;DHT22;12727;49.934;8.656;2022-07-06T01:39:44;15.70;80.70
24560;DHT22;12727;49.934;8.656;2022-07-06T01:42:10;15.70;80.90
24560;DHT22;12727;49.934;8.656;2022-07-06T01:44:35;15.80;81.40
24560;DHT22;12727;49.934;8.656;2022-07-06T01:47:01;15.90;82.00
24560;DHT22;12727;49.934;8.656;2022-07-06T01:49:27;16.10;82.10
24560;DHT22;12727;49.934;8.656;2022-07-06T01:51:52;16.10;81.70
24560;DHT22;12727;49.934;8.656;2022-07-06T01:54:18;16.20;81.90
24560;DHT22;12727;49.934;8.656;2022-07-06T01:56:43;16.20;81.80
24560;DHT22;12727;49.934;8.656;2022-07-06T01:59:09;16.10;81.70
24560;DHT22;12727;49.934;8.656;2022-07-06T02:01:35;16.00;82.30
24560;DHT22;12727;49.934;8.656;2022-07-06T02:04:00;15.80;82.60
24560;DHT22;12727;49.934;8.656;2022-07-06T02:06:26;15.80;82.90
24560;DHT22;12727;49.934;8.656;2022-07-06T02:08:52;15.70;82.90
24560;DHT22;12727;49.934;8.656;2022-07-06T02:11:19;15.70;84.30
24560;DHT22;12727;49.934;8.656;2022-07-06T02:13:45;15.70;83.40
24560;DHT22;12727;49.934;8.656;2022-07-06T02:16:10;15.50;84.50
24560;DHT22;12727;49.934;8.656;2022-07-06T02:18:36;15.50;84.50
24560;DHT22;12727;49.934;8.656;2022-07-06T02:21:04;15.50;85.50
24560;DHT22;12727;49.934;8.656;2022-07-06T02:23:30;15.50;86.60
24560;DHT22;12727;49.934;8.656;2022-07-06T02:25:55;15.60;86.10
24560;DHT22;12727;49.934;8.656;2022-07-06T02:28:21;15.70;85.40
24560;DHT22;12727;49.934;8.656;2022-07-06T02:30:46;15.60;85.20
24560;DHT22;12727;49.934;8.656;2022-07-06T02:33:12;15.50;86.00
24560;DHT22;12727;49.934;8.656;2022-07-06T02:35:37;15.40;86.70
24560;DHT22;12727;49.934;8.656;2022-07-06T02:38:07;15.50;87.60
24560;DHT22;12727;49.934;8.656;2022-07-06T02:40:33;15.50;87.70
24560;DHT22;12727;49.934;8.656;2022-07-06T02:42:58;15.50;87.80
24560;DHT22;12727;49.934;8.656;2022-07-06T02:45:24;15.40;88.50
24560;DHT22;12727;49.934;8.656;2022-07-06T02:47:49;15.30;88.70
24560;DHT22;12727;49.934;8.656;2022-07-06T02:50:16;15.20;89.90
24560;DHT22;12727;49.934;8.656;2022-07-06T02:52:42;15.10;90.40
24560;DHT22;12727;49.934;8.656;2022-07-06T02:55:08;15.00;90.80
24560;DHT22;12727;49.934;8.656;2022-07-06T02:57:33;14.90;91.30
24560;DHT22;12727;49.934;8.656;2022-07-06T02:59:59;14.90;91.90
24560;DHT22;12727;49.934;8.656;2022-07-06T03:02:25;14.90;92.10
24560;DHT22;12727;49.934;8.656;2022-07-06T03:04:50;14.90;92.40
24560;DHT22;12727;49.934;8.656;2022-07-06T03:07:16;14.90;92.70
24560;DHT22;12727;49.934;8.656;2022-07-06T03:09:41;15.00;93.20
24560;DHT22;12727;49.934;8.656;2022-07-06T03:12:07;15.20;92.80
24560;DHT22;12727;49.934;8.656;2022-07-06T03:14:33;15.20;92.80
24560;DHT22;12727;49.934;8.656;2022-07-06T03:16:58;15.40;93.30
24560;DHT22;12727;49.934;8.656;2022-07-06T03:19:24;15.50;92.90
24560;DHT22;12727;49.934;8.656;2022-07-06T03:21:50;15.40;92.80
24560;DHT22;12727;49.934;8.656;2022-07-06T03:24:16;15.30;93.00
24560;DHT22;12727;49.934;8.656;2022-07-06T03:26:41;15.10;93.30
24560;DHT22;12727;49.934;8.656;2022-07-06T03:29:07;15.10;93.50
24560;DHT22;12727;49.934;8.656;2022-07-06T03:31:32;15.10;93.20
24560;DHT22;12727;49.934;8.656;2022-07-06T03:33:58;15.20;93.10
24560;DHT22;12727;49.934;8.656;2022-07-06T03:36:23;15.30;92.90
24560;DHT22;12727;49.934;8.656;2022-07-06T03:38:49;15.20;92.60
24560;DHT22;12727;49.934;8.656;2022-07-06T03:41:15;15.20;92.70
24560;DHT22;12727;49.934;8.656;2022-07-06T03:43:40;15.20;92.70
24560;DHT22;12727;49.934;8.656;2022-07-06T03:46:06;15.10;92.80
24560;DHT22;12727;49.934;8.656;2022-07-06T03:48:32;14.90;93.20
24560;DHT22;12727;49.934;8.656;2022-07-06T03:50:57;14.90;93.40
24560;DHT22;12727;49.934;8.656;2022-07-06T03:53:23;14.80;93.50
24560;DHT22;12727;49.934;8.656;2022-07-06T03:55:48;15.00;93.70
24560;DHT22;12727;49.934;8.656;2022-07-06T03:58:32;14.90;93.50
24560;DHT22;12727;49.934;8.656;2022-07-06T04:00:58;15.00;94.50
24560;DHT22;12727;49.934;8.656;2022-07-06T04:03:24;15.00;93.50
24560;DHT22;12727;49.934;8.656;2022-07-06T04:05:49;15.00;93.70
24560;DHT22;12727;49.934;8.656;2022-07-06T04:08:15;15.00;93.50
24560;DHT22;12727;49.934;8.656;2022-07-06T04:10:41;15.00;93.80
24560;DHT22;12727;49.934;8.656;2022-07-06T04:13:06;15.10;94.40
24560;DHT22;12727;49.934;8.656;2022-07-06T04:15:32;15.40;93.90
24560;DHT22;12727;49.934;8.656;2022-07-06T04:17:57;15.70;93.20
24560;DHT22;12727;49.934;8.656;2022-07-06T04:20:24;15.70;92.90
24560;DHT22;12727;49.934;8.656;2022-07-06T04:22:51;15.90;92.70
24560;DHT22;12727;49.934;8.656;2022-07-06T04:25:17;16.00;92.40
24560;DHT22;12727;49.934;8.656;2022-07-06T04:27:42;16.10;92.10
24560;DHT22;12727;49.934;8.656;2022-07-06T04:30:09;16.00;92.10
24560;DHT22;12727;49.934;8.656;2022-07-06T04:32:35;15.80;92.30
24560;DHT22;12727;49.934;8.656;2022-07-06T04:35:01;15.70;92.70
24560;DHT22;12727;49.934;8.656;2022-07-06T04:37:27;15.70;93.00
24560;DHT22;12727;49.934;8.656;2022-07-06T04:39:53;15.70;93.00
24560;DHT22;12727;49.934;8.656;2022-07-06T04:42:18;15.70;93.20
24560;DHT22;12727;49.934;8.656;2022-07-06T04:44:44;15.70;93.30
24560;DHT22;12727;49.934;8.656;2022-07-06T04:47:11;15.80;93.10
24560;DHT22;12727;49.934;8.656;2022-07-06T04:49:37;15.90;93.10
24560;DHT22;12727;49.934;8.656;2022-07-06T04:52:03;15.90;93.00
24560;DHT22;12727;49.934;8.656;2022-07-06T04:54:28;15.90;93.10
24560;DHT22;12727;49.934;8.656;2022-07-06T04:56:54;15.80;93.00
24560;DHT22;12727;49.934;8.656;2022-07-06T04:59:20;15.90;93.10
24560;DHT22;12727;49.934;8.656;2022-07-06T05:01:45;16.00;93.00
24560;DHT22;12727;49.934;8.656;2022-07-06T05:04:11;16.00;93.00
24560;DHT22;12727;49.934;8.656;2022-07-06T05:06:36;16.00;92.70
24560;DHT22;12727;49.934;8.656;2022-07-06T05:09:02;15.80;92.90
24560;DHT22;12727;49.934;8.656;2022-07-06T05:11:28;15.90;93.10
24560;DHT22;12727;49.934;8.656;2022-07-06T05:13:54;15.90;93.20
24560;DHT22;12727;49.934;8.656;2022-07-06T05:16:20;15.90;93.30
24560;DHT22;12727;49.934;8.656;2022-07-06T05:18:46;15.90;93.30
24560;DHT22;12727;49.934;8.656;2022-07-06T05:21:11;16.00;93.30
24560;DHT22;12727;49.934;8.656;2022-07-06T05:23:37;16.10;93.20
24560;DHT22;12727;49.934;8.656;2022-07-06T05:26:03;16.10;92.90
24560;DHT22;12727;49.934;8.656;2022-07-06T05:28:28;16.10;93.10
24560;DHT22;12727;49.934;8.656;2022-07-06T05:30:54;16.20;93.30
24560;DHT22;12727;49.934;8.656;2022-07-06T05:33:19;16.30;93.50
24560;DHT22;12727;49.934;8.656;2022-07-06T05:35:45;16.40;93.20
24560;DHT22;12727;49.934;8.656;2022-07-06T05:38:11;16.50;93.10
24560;DHT22;12727;49.934;8.656;2022-07-06T05:40:36;16.50;92.90
24560;DHT22;12727;49.934;8.656;2022-07-06T05:43:02;16.60;92.70
24560;DHT22;12727;49.934;8.656;2022-07-06T05:45:28;16.70;92.80
24560;DHT22;12727;49.934;8.656;2022-07-06T05:47:54;16.90;92.70
24560;DHT22;12727;49.934;8.656;2022-07-06T05:50:38;17.10;92.20
24560;DHT22;12727;49.934;8.656;2022-07-06T05:53:04;17.40;91.20
24560;DHT22;12727;49.934;8.656;2022-07-06T05:55:31;17.20;91.40
24560;DHT22;12727;49.934;8.656;2022-07-06T05:57:56;17.10;91.40
24560;DHT22;12727;49.934;8.656;2022-07-06T06:00:23;17.20;91.40
24560;DHT22;12727;49.934;8.656;2022-07-06T06:02:49;17.10;91.20
24560;DHT22;12727;49.934;8.656;2022-07-06T06:05:15;17.20;91.10
24560;DHT22;12727;49.934;8.656;2022-07-06T06:07:41;17.30;90.90
24560;DHT22;12727;49.934;8.656;2022-07-06T06:10:11;17.20;90.90
24560;DHT22;12727;49.934;8.656;2022-07-06T06:12:38;17.40;90.90
24560;DHT22;12727;49.934;8.656;2022-07-06T06:15:04;17.50;90.40
24560;DHT22;12727;49.934;8.656;2022-07-06T06:17:31;17.60;90.30
24560;DHT22;12727;49.934;8.656;2022-07-06T06:19:57;17.60;90.10
24560;DHT22;12727;49.934;8.656;2022-07-06T06:22:22;17.70;90.20
24560;DHT22;12727;49.934;8.656;2022-07-06T06:24:48;17.70;89.80
24560;DHT22;12727;49.934;8.656;2022-07-06T06:27:14;17.70;89.40
24560;DHT22;12727;49.934;8.656;2022-07-06T06:29:40;17.90;89.30
24560;DHT22;12727;49.934;8.656;2022-07-06T06:32:08;17.90;88.70
24560;DHT22;12727;49.934;8.656;2022-07-06T06:34:33;17.90;88.20
24560;DHT22;12727;49.934;8.656;2022-07-06T06:36:59;18.10;87.90
24560;DHT22;12727;49.934;8.656;2022-07-06T06:39:25;18.10;88.00
24560;DHT22;12727;49.934;8.656;2022-07-06T06:41:50;18.10;86.60
24560;DHT22;12727;49.934;8.656;2022-07-06T06:44:16;18.30;87.00
24560;DHT22;12727;49.934;8.656;2022-07-06T06:46:43;18.40;86.10
24560;DHT22;12727;49.934;8.656;2022-07-06T06:49:09;18.40;86.00
24560;DHT22;12727;49.934;8.656;2022-07-06T06:51:35;18.30;85.10
24560;DHT22;12727;49.934;8.656;2022-07-06T06:54:03;18.40;85.60
24560;DHT22;12727;49.934;8.656;2022-07-06T06:56:28;18.50;85.20
24560;DHT22;12727;49.934;8.656;2022-07-06T06:58:54;18.80;84.30
24560;DHT22;12727;49.934;8.656;2022-07-06T07:01:20;18.80;83.40
24560;DHT22;12727;49.934;8.656;2022-07-06T07:03:45;18.70;82.90
24560;DHT22;12727;49.934;8.656;2022-07-06T07:06:11;18.90;83.10
24560;DHT22;12727;49.934;8.656;2022-07-06T07:08:37;19.00;82.30
24560;DHT22;12727;49.934;8.656;2022-07-06T07:11:02;19.00;81.90
24560;DHT22;12727;49.934;8.656;2022-07-06T07:13:28;19.10;81.80
24560;DHT22;12727;49.934;8.656;2022-07-06T07:15:53;19.30;81.10
24560;DHT22;12727;49.934;8.656;2022-07-06T07:18:19;19.50;80.50
24560;DHT22;12727;49.934;8.656;2022-07-06T07:20:44;19.60;79.90
24560;DHT22;12727;49.934;8.656;2022-07-06T07:23:10;19.50;79.80
24560;DHT22;12727;49.934;8.656;2022-07-06T07:25:35;20.00;78.70
24560;DHT22;12727;49.934;8.656;2022-07-06T07:28:04;20.10;77.40
24560;DHT22;12727;49.934;8.656;2022-07-06T07:30:29;20.00;76.70
24560;DHT22;12727;49.934;8.656;2022-07-06T07:32:55;19.90;76.90
24560;DHT22;12727;49.934;8.656;2022-07-06T07:35:21;19.80;77.00
24560;DHT22;12727;49.934;8.656;2022-07-06T07:37:47;19.80;77.30
24560;DHT22;12727;49.934;8.656;2022-07-06T07:40:13;19.80;77.20
24560;DHT22;12727;49.934;8.656;2022-07-06T07:42:38;19.80;76.70
24560;DHT22;12727;49.934;8.656;2022-07-06T07:45:07;19.90;76.90
24560;DHT22;12727;49.934;8.656;2022-07-06T07:47:33;20.00;76.10
24560;DHT22;12727;49.934;8.656;2022-07-06T07:49:58;19.90;75.80
24560;DHT22;12727;49.934;8.656;2022-07-06T07:52:24;20.00;75.50
24560;DHT22;12727;49.934;8.656;2022-07-06T07:54:50;19.90;75.20
24560;DHT22;12727;49.934;8.656;2022-07-06T07:57:15;20.10;74.60
24560;DHT22;12727;49.934;8.656;2022-07-06T07:59:41;20.20;73.80
24560;DHT22;12727;49.934;8.656;2022-07-06T08:02:07;20.40;73.40
24560;DHT22;12727;49.934;8.656;2022-07-06T08:04:33;20.50;72.90
24560;DHT22;12727;49.934;8.656;2022-07-06T08:06:59;20.60;72.30
24560;DHT22;12727;49.934;8.656;2022-07-06T08:09:24;20.20;72.60
24560;DHT22;12727;49.934;8.656;2022-07-06T08:11:50;20.10;73.10
24560;DHT22;12727;49.934;8.656;2022-07-06T08:14:16;20.00;73.20
24560;DHT22;12727;49.934;8.656;2022-07-06T08:16:42;20.10;73.10
24560;DHT22;12727;49.934;8.656;2022-07-06T08:19:08;20.00;73.20
24560;DHT22;12727;49.934;8.656;2022-07-06T08:21:34;20.30;73.20
24560;DHT22;12727;49.934;8.656;2022-07-06T08:24:00;20.40;71.70
24560;DHT22;12727;49.934;8.656;2022-07-06T08:26:27;20.60;70.70
24560;DHT22;12727;49.934;8.656;2022-07-06T08:28:53;20.90;69.00
24560;DHT22;12727;49.934;8.656;2022-07-06T08:31:19;21.30;67.30
24560;DHT22;12727;49.934;8.656;2022-07-06T08:33:44;21.10;67.10
24560;DHT22;12727;49.934;8.656;2022-07-06T08:36:10;20.90;68.50
24560;DHT22;12727;49.934;8.656;2022-07-06T08:38:36;21.00;68.10
24560;DHT22;12727;49.934;8.656;2022-07-06T08:41:02;21.20;66.90
24560;DHT22;12727;49.934;8.656;2022-07-06T08:43:31;21.30;66.00
24560;DHT22;12727;49.934;8.656;2022-07-06T08:45:58;21.30;65.60
24560;DHT22;12727;49.934;8.656;2022-07-06T08:48:24;21.30;65.00
24560;DHT22;12727;49.934;8.656;2022-07-06T08:50:50;21.10;64.90
24560;DHT22;12727;49.934;8.656;2022-07-06T08:53:19;21.20;64.20
24560;DHT22;12727;49.934;8.656;2022-07-06T08:55:47;21.30;64.40
24560;DHT22;12727;49.934;8.656;2022-07-06T08:58:13;21.20;63.60
24560;DHT22;12727;49.934;8.656;2022-07-06T09:00:39;21.10;63.60
24560;DHT22;12727;49.934;8.656;2022-07-06T09:03:06;21.10;64.70
24560;DHT22;12727;49.934;8.656;2022-07-06T09:05:32;21.20;64.40
24560;DHT22;12727;49.934;8.656;2022-07-06T09:07:59;20.70;64.40
24560;DHT22;12727;49.934;8.656;2022-07-06T09:10:25;20.50;65.60
24560;DHT22;12727;49.934;8.656;2022-07-06T09:12:51;20.70;67.10
24560;DHT22;12727;49.934;8.656;2022-07-06T09:15:17;21.30;64.30
24560;DHT22;12727;49.934;8.656;2022-07-06T09:17:43;21.30;63.10
24560;DHT22;12727;49.934;8.656;2022-07-06T09:20:10;21.10;64.10
24560;DHT22;12727;49.934;8.656;2022-07-06T09:22:37;21.40;62.90
24560;DHT22;12727;49.934;8.656;2022-07-06T09:25:07;21.60;62.40
24560;DHT22;12727;49.934;8.656;2022-07-06T09:27:47;21.30;62.40
24560;DHT22;12727;49.934;8.656;2022-07-06T09:30:15;21.20;63.20
24560;DHT22;12727;49.934;8.656;2022-07-06T09:32:51;21.30;62.30
24560;DHT22;12727;49.934;8.656;2022-07-06T09:38:08;21.80;60.50
24560;DHT22;12727;49.934;8.656;2022-07-06T09:40:36;22.00;60.10
24560;DHT22;12727;49.934;8.656;2022-07-06T09:43:19;22.30;59.80
24560;DHT22;12727;49.934;8.656;2022-07-06T09:45:50;22.90;58.80
24560;DHT22;12727;49.934;8.656;2022-07-06T09:48:23;23.70;57.80
24560;DHT22;12727;49.934;8.656;2022-07-06T09:50:59;23.30;57.70
24560;DHT22;12727;49.934;8.656;2022-07-06T09:53:28;22.70;57.50
24560;DHT22;12727;49.934;8.656;2022-07-06T09:55:55;22.60;57.70
24560;DHT22;12727;49.934;8.656;2022-07-06T09:58:23;23.50;56.50
24560;DHT22;12727;49.934;8.656;2022-07-06T10:00:49;24.60;55.00
24560;DHT22;12727;49.934;8.656;2022-07-06T10:03:17;25.50;52.10
24560;DHT22;12727;49.934;8.656;2022-07-06T10:05:47;24.90;51.80
24560;DHT22;12727;49.934;8.656;2022-07-06T10:08:14;25.30;51.40
24560;DHT22;12727;49.934;8.656;2022-07-06T10:10:41;25.80;50.30
24560;DHT22;12727;49.934;8.656;2022-07-06T10:13:08;25.40;50.00
24560;DHT22;12727;49.934;8.656;2022-07-06T10:15:36;25.30;50.40
24560;DHT22;12727;49.934;8.656;2022-07-06T10:18:04;24.50;50.90
24560;DHT22;12727;49.934;8.656;2022-07-06T10:20:32;23.80;51.50
24560;DHT22;12727;49.934;8.656;2022-07-06T10:23:00;24.10;51.60
24560;DHT22;12727;49.934;8.656;2022-07-06T10:25:27;24.80;49.90
24560;DHT22;12727;49.934;8.656;2022-07-06T10:27:53;25.20;47.70
24560;DHT22;12727;49.934;8.656;2022-07-06T10:30:20;25.20;47.50
24560;DHT22;12727;49.934;8.656;2022-07-06T10:32:49;25.80;46.90
24560;DHT22;12727;49.934;8.656;2022-07-06T10:35:17;25.30;47.10
24560;DHT22;12727;49.934;8.656;2022-07-06T10:37:44;24.30;48.90
24560;DHT22;12727;49.934;8.656;2022-07-06T10:40:13;23.60;49.60
24560;DHT22;12727;49.934;8.656;2022-07-06T10:42:59;23.40;50.20
24560;DHT22;12727;49.934;8.656;2022-07-06T10:50:47;25.40;45.90
24560;DHT22;12727;49.934;8.656;2022-07-06T10:53:14;25.60;45.90
24560;DHT22;12727;49.934;8.656;2022-07-06T10:55:43;25.50;45.30
24560;DHT22;12727;49.934;8.656;2022-07-06T10:58:09;25.40;46.00
24560;DHT22;12727;49.934;8.656;2022-07-06T11:00:54;25.70;45.50
24560;DHT22;12727;49.934;8.656;2022-07-06T11:03:39;26.00;45.10
24560;DHT22;12727;49.934;8.656;2022-07-06T11:06:07;25.70;43.40
24560;DHT22;12727;49.934;8.656;2022-07-06T11:08:46;25.10;45.00
24560;DHT22;12727;49.934;8.656;2022-07-06T11:11:23;25.40;45.10
24560;DHT22;12727;49.934;8.656;2022-07-06T11:14:04;26.00;44.40
24560;DHT22;12727;49.934;8.656;2022-07-06T11:19:21;25.70;43.30
24560;DHT22;12727;49.934;8.656;2022-07-06T11:21:51;25.70;43.80
24560;DHT22;12727;49.934;8.656;2022-07-06T11:24:22;25.80;43.50
24560;DHT22;12727;49.934;8.656;2022-07-06T11:26:49;25.70;43.30
24560;DHT22;12727;49.934;8.656;2022-07-06T11:29:19;25.80;43.90
24560;DHT22;12727;49.934;8.656;2022-07-06T11:31:50;25.20;44.50
24560;DHT22;12727;49.934;8.656;2022-07-06T11:34:27;24.60;45.10
24560;DHT22;12727;49.934;8.656;2022-07-06T11:36:57;24.40;45.30
24560;DHT22;12727;49.934;8.656;2022-07-06T11:39:27;23.90;45.70
24560;DHT22;12727;49.934;8.656;2022-07-06T11:41:54;23.90;45.90
24560;DHT22;12727;49.934;8.656;2022-07-06T11:44:20;23.70;45.40
24560;DHT22;12727;49.934;8.656;2022-07-06T11:46:46;23.30;45.30
24560;DHT22;12727;49.934;8.656;2022-07-06T11:49:12;23.00;46.40
24560;DHT22;12727;49.934;8.656;2022-07-06T11:51:39;22.80;46.60
24560;DHT22;12727;49.934;8.656;2022-07-06T11:54:24;22.80;46.60
24560;DHT22;12727;49.934;8.656;2022-07-06T11:56:57;23.00;47.60
24560;DHT22;12727;49.934;8.656;2022-07-06T11:59:27;23.00;47.10
24560;DHT22;12727;49.934;8.656;2022-07-06T12:04:31;23.40;46.70
24560;DHT22;12727;49.934;8.656;2022-07-06T12:07:05;23.40;46.30
24560;DHT22;12727;49.934;8.656;2022-07-06T12:09:36;23.30;46.90
24560;DHT22;12727;49.934;8.656;2022-07-06T12:12:03;23.50;46.90
24560;DHT22;12727;49.934;8.656;2022-07-06T12:14:30;23.50;46.60
24560;DHT22;12727;49.934;8.656;2022-07-06T12:16:56;23.30;46.60
24560;DHT22;12727;49.934;8.656;2022-07-06T12:19:22;23.10;46.40
24560;DHT22;12727;49.934;8.656;2022-07-06T12:21:50;22.90;47.20
24560;DHT22;12727;49.934;8.656;2022-07-06T12:24:25;22.90;46.40
24560;DHT22;12727;49.934;8.656;2022-07-06T12:26:51;23.10;47.20
24560;DHT22;12727;49.934;8.656;2022-07-06T12:29:18;23.10;47.10
24560;DHT22;12727;49.934;8.656;2022-07-06T12:31:52;23.30;46.10
24560;DHT22;12727;49.934;8.656;2022-07-06T12:34:20;23.20;45.90
24560;DHT22;12727;49.934;8.656;2022-07-06T12:39:14;23.10;46.50
24560;DHT22;12727;49.934;8.656;2022-07-06T12:44:10;23.00;46.30
24560;DHT22;12727;49.934;8.656;2022-07-06T12:46:38;23.20;46.10
24560;DHT22;12727;49.934;8.656;2022-07-06T12:49:12;23.30;45.70
24560;DHT22;12727;49.934;8.656;2022-07-06T12:51:54;23.10;44.70
24560;DHT22;12727;49.934;8.656;2022-07-06T12:54:21;23.10;45.40
24560;DHT22;12727;49.934;8.656;2022-07-06T12:59:22;23.30;45.40
24560;DHT22;12727;49.934;8.656;2022-07-06T13:01:48;23.40;45.70
24560;DHT22;12727;49.934;8.656;2022-07-06T13:04:16;23.60;46.40
24560;DHT22;12727;49.934;8.656;2022-07-06T13:06:41;23.70;46.50
24560;DHT22;12727;49.934;8.656;2022-07-06T13:09:07;23.70;46.80
24560;DHT22;12727;49.934;8.656;2022-07-06T13:11:33;23.60;46.00
24560;DHT22;12727;49.934;8.656;2022-07-06T13:13:59;23.30;45.50
24560;DHT22;12727;49.934;8.656;2022-07-06T13:16:25;23.30;45.20
24560;DHT22;12727;49.934;8.656;2022-07-06T13:18:56;23.10;45.90
24560;DHT22;12727;49.934;8.656;2022-07-06T13:21:21;23.10;45.70
24560;DHT22;12727;49.934;8.656;2022-07-06T13:23:47;23.10;46.60
24560;DHT22;12727;49.934;8.656;2022-07-06T13:26:13;23.20;46.10
24560;DHT22;12727;49.934;8.656;2022-07-06T13:28:39;23.40;46.20
24560;DHT22;12727;49.934;8.656;2022-07-06T13:31:04;23.80;46.20
24560;DHT22;12727;49.934;8.656;2022-07-06T13:33:30;23.90;45.50
24560;DHT22;12727;49.934;8.656;2022-07-06T13:35:55;23.70;45.50
24560;DHT22;12727;49.934;8.656;2022-07-06T13:38:21;23.80;46.00
24560;DHT22;12727;49.934;8.656;2022-07-06T13:40:47;23.80;45.90
24560;DHT22;12727;49.934;8.656;2022-07-06T13:43:12;24.10;45.20
24560;DHT22;12727;49.934;8.656;2022-07-06T13:45:38;24.10;45.40
24560;DHT22;12727;49.934;8.656;2022-07-06T13:48:03;23.90;45.60
24560;DHT22;12727;49.934;8.656;2022-07-06T13:50:29;23.70;45.60
24560;DHT22;12727;49.934;8.656;2022-07-06T13:52:58;23.40;45.50
24560;DHT22;12727;49.934;8.656;2022-07-06T13:55:23;23.40;46.00
24560;DHT22;12727;49.934;8.656;2022-07-06T13:57:49;23.70;45.20
24560;DHT22;12727;49.934;8.656;2022-07-06T14:00:15;23.70;45.90
24560;DHT22;12727;49.934;8.656;2022-07-06T14:02:44;23.60;46.10
24560;DHT22;12727;49.934;8.656;2022-07-06T14:05:10;23.60;46.60
24560;DHT22;12727;49.934;8.656;2022-07-06T14:07:36;23.40;46.90
24560;DHT22;12727;49.934;8.656;2022-07-06T14:10:02;23.20;47.80
24560;DHT22;12727;49.934;8.656;2022-07-06T14:12:28;23.10;47.90
24560;DHT22;12727;49.934;8.656;2022-07-06T14:14:53;23.40;48.80
24560;DHT22;12727;49.934;8.656;2022-07-06T14:17:19;23.60;47.90
24560;DHT22;12727;49.934;8.656;2022-07-06T14:19:45;23.40;47.30
24560;DHT22;12727;49.934;8.656;2022-07-06T14:22:10;23.00;47.40
24560;DHT22;12727;49.934;8.656;2022-07-06T14:24:36;22.80;48.20
24560;DHT22;12727;49.934;8.656;2022-07-06T14:27:02;22.90;48.50
24560;DHT22;12727;49.934;8.656;2022-07-06T14:29:27;22.90;48.60
24560;DHT22;12727;49.934;8.656;2022-07-06T14:31:53;22.80;48.20
24560;DHT22;12727;49.934;8.656;2022-07-06T14:34:18;22.60;48.40
24560;DHT22;12727;49.934;8.656;2022-07-06T14:36:44;22.60;48.40
24560;DHT22;12727;49.934;8.656;2022-07-06T14:39:10;22.70;49.10
24560;DHT22;12727;49.934;8.656;2022-07-06T14:41:38;23.00;48.60
24560;DHT22;12727;49.934;8.656;2022-07-06T14:44:04;23.10;48.60
24560;DHT22;12727;49.934;8.656;2022-07-06T14:46:30;23.30;48.80
24560;DHT22;12727;49.934;8.656;2022-07-06T14:48:56;23.20;48.60
24560;DHT22;12727;49.934;8.656;2022-07-06T14:51:21;23.20;48.90
24560;DHT22;12727;49.934;8.656;2022-07-06T14:53:47;23.20;48.30
24560;DHT22;12727;49.934;8.656;2022-07-06T14:56:13;23.20;48.40
24560;DHT22;12727;49.934;8.656;2022-07-06T14:58:39;23.00;48.50
24560;DHT22;12727;49.934;8.656;2022-07-06T15:01:04;23.00;48.50
24560;DHT22;12727;49.934;8.656;2022-07-06T15:03:30;23.10;48.40
24560;DHT22;12727;49.934;8.656;2022-07-06T15:05:55;23.10;47.70
24560;DHT22;12727;49.934;8.656;2022-07-06T15:08:21;22.90;47.80
24560;DHT22;12727;49.934;8.656;2022-07-06T15:10:47;22.90;48.40
24560;DHT22;12727;49.934;8.656;2022-07-06T15:13:13;22.80;48.20
24560;DHT22;12727;49.934;8.656;2022-07-06T15:15:39;22.60;48.00
24560;DHT22;12727;49.934;8.656;2022-07-06T15:18:05;22.70;48.20
24560;DHT22;12727;49.934;8.656;2022-07-06T15:20:30;22.70;48.30
24560;DHT22;12727;49.934;8.656;2022-07-06T15:22:56;22.90;48.60
24560;DHT22;12727;49.934;8.656;2022-07-06T15:25:22;23.00;48.40
24560;DHT22;12727;49.934;8.656;2022-07-06T15:27:50;23.10;48.00
24560;DHT22;12727;49.934;8.656;2022-07-06T15:30:16;23.00;46.60
24560;DHT22;12727;49.934;8.656;2022-07-06T15:32:42;22.90;46.20
24560;DHT22;12727;49.934;8.656;2022-07-06T15:35:07;22.90;47.10
24560;DHT22;12727;49.934;8.656;2022-07-06T15:37:33;22.80;47.90
24560;DHT22;12727;49.934;8.656;2022-07-06T15:40:00;22.80;47.30
24560;DHT22;12727;49.934;8.656;2022-07-06T15:42:26;22.70;47.70
24560;DHT22;12727;49.934;8.656;2022-07-06T15:44:52;22.70;48.50
24560;DHT22;12727;49.934;8.656;2022-07-06T15:47:18;22.50;49.10
24560;DHT22;12727;49.934;8.656;2022-07-06T15:49:45;22.50;49.50